Time;durP1;ratioP1;P1;durP2;ratioP2;P2;SDS_P1;SDS_P2;PMS_P1;PMS_P2;Temp;Humidity;BMP_temperature;BMP_pressure;BME280_temperature;BME280_humidity;BME280_pressure;Samples;Min_cycle;Max_cycle;Signal;HPM_P1;HPM_P2
2023/08/15 00:01:24;;;;;;;6.63;6.03;;;;;;;27.58;62.06;98598.47;6984738;28;20317;-83
2023/08/15 00:04:46;;;;;;;6.47;5.53;;;;;;;27.57;61.82;98594.06;6974513;28;20264;-84
2023/08/15 00:08:07;;;;;;;5.87;5.37;;;;;;;27.02;61.48;98493.16;6971682;28;20212;-84
2023/08/15 00:11:30;;;;;;;7.57;5.77;;;;;;;27.55;61.29;98591.63;6971699;28;20309;-84
2023/08/15 00:14:52;;;;;;;7.30;6.60;;;;;;;27.15;62.18;98578.03;6970303;28;20207;-84
2023/08/15 00:18:13;;;;;;;8.47;6.63;;;;;;;26.36;65.35;98579.72;6971363;28;21029;-84
2023/08/15 00:21:35;;;;;;;7.87;7.00;;;;;;;26.58;65.47;98567.91;6972147;28;20305;-83
2023/08/15 00:24:56;;;;;;;7.07;6.47;;;;;;;27.08;64.28;98578.47;6972540;28;20248;-84
2023/08/15 00:28:19;;;;;;;7.67;6.63;;;;;;;26.96;64.09;98563.63;6972677;28;20307;-84
2023/08/15 00:31:41;;;;;;;7.53;6.80;;;;;;;26.89;64.07;98574.31;6972577;28;20285;-85
2023/08/15 00:35:02;;;;;;;9.43;6.90;;;;;;;26.70;65.92;98581.97;6972223;28;20195;-84
2023/08/15 00:38:24;;;;;;;9.97;7.20;;;;;;;26.67;65.22;98550.22;6971151;28;20292;-84
2023/08/15 00:41:45;;;;;;;7.83;7.17;;;;;;;26.79;64.81;98577.34;6971918;28;20227;-83
2023/08/15 00:45:09;;;;;;;8.30;6.83;;;;;;;27.10;64.65;98572.63;6972342;28;20232;-84
2023/08/15 00:48:32;;;;;;;7.60;6.83;;;;;;;27.11;64.10;98574.28;6970965;28;20332;-84
2023/08/15 00:51:54;;;;;;;8.80;7.50;;;;;;;26.87;64.28;98571.88;6998745;28;20231;-84
2023/08/15 00:55:16;;;;;;;8.40;7.50;;;;;;;26.84;64.36;98566.94;6998674;28;20243;-84
2023/08/15 00:58:38;;;;;;;8.00;7.23;;;;;;;26.68;64.59;98576.78;6998264;28;20311;-84
2023/08/15 01:02:01;;;;;;;7.93;7.17;;;;;;;26.57;65.65;98572.63;6998528;28;20362;-84
2023/08/15 01:05:24;;;;;;;7.47;6.77;;;;;;;27.00;64.59;98575.66;6998831;28;20234;-85
2023/08/15 01:08:46;;;;;;;8.40;7.03;;;;;;;26.28;66.01;98543.72;6998907;28;20297;-84
2023/08/15 01:12:13;;;;;;;8.33;7.53;;;;;;;26.54;65.68;98577.97;6997739;28;20312;-84
2023/08/15 01:15:35;;;;;;;13.37;6.97;;;;;;;27.08;63.51;98563.84;6997080;28;20187;-84
2023/08/15 01:19:01;;;;;;;7.97;6.50;;;;;;;27.10;62.70;98567.94;6997307;28;20336;-83
2023/08/15 01:22:24;;;;;;;7.60;7.00;;;;;;;26.72;63.82;98565.91;6996929;28;20725;-84
2023/08/15 01:25:49;;;;;;;8.97;6.93;;;;;;;26.82;63.85;98569.22;6996293;28;20340;-84
2023/08/15 01:29:11;;;;;;;6.90;6.23;;;;;;;26.67;63.91;98544.69;6997509;28;20186;-84
2023/08/15 01:32:36;;;;;;;7.73;7.03;;;;;;;26.68;64.49;98556.59;6996606;28;20320;-84
2023/08/15 01:36:03;;;;;;;7.27;6.67;;;;;;;26.52;64.34;98517.41;6996455;28;20218;-84
2023/08/15 01:39:28;;;;;;;6.80;6.07;;;;;;;27.04;63.29;98560.91;6996617;28;20192;-84
2023/08/15 01:42:55;;;;;;;9.33;6.30;;;;;;;26.96;63.08;98558.88;6996652;28;20228;-84
2023/08/15 01:46:17;;;;;;;7.53;6.83;;;;;;;26.69;63.91;98548.00;6996060;28;20226;-84
2023/08/15 01:49:38;;;;;;;11.10;6.93;;;;;;;26.75;64.03;98548.66;6996683;28;20255;-84
2023/08/15 01:53:00;;;;;;;8.93;6.60;;;;;;;26.42;64.51;98537.00;6996284;28;20260;-84
2023/08/15 01:56:21;;;;;;;8.20;7.40;;;;;;;26.70;64.35;98538.56;6995949;28;20288;-84
2023/08/15 01:59:44;;;;;;;7.73;6.90;;;;;;;26.10;66.80;98544.72;6992396;28;20212;-83
2023/08/15 02:03:06;;;;;;;7.37;6.67;;;;;;;26.46;65.14;98529.72;6998015;28;20252;-83
2023/08/15 02:06:27;;;;;;;7.50;6.63;;;;;;;26.42;65.86;98561.91;6997111;28;20928;-82
2023/08/15 02:09:49;;;;;;;7.97;6.83;;;;;;;26.17;64.81;98490.63;6998119;28;20205;-83
2023/08/15 02:13:11;;;;;;;8.17;7.10;;;;;;;25.87;65.73;98490.50;6997852;28;20233;-83
2023/08/15 02:16:34;;;;;;;8.00;7.30;;;;;;;25.11;67.97;98411.28;6997717;28;20210;-82
2023/08/15 02:19:56;;;;;;;9.67;6.67;;;;;;;26.73;64.73;98548.16;6998138;28;20215;-84
2023/08/15 02:23:17;;;;;;;7.57;6.67;;;;;;;26.57;65.02;98557.97;6997861;28;20232;-82
2023/08/15 02:26:39;;;;;;;11.30;7.10;;;;;;;26.54;64.59;98537.28;6997247;28;20268;-83
2023/08/15 02:30:00;;;;;;;8.20;7.40;;;;;;;26.59;64.72;98558.47;6998102;28;20296;-82
2023/08/15 02:33:23;;;;;;;10.93;7.73;;;;;;;26.48;64.11;98515.59;6997407;28;20323;-83
2023/08/15 02:36:47;;;;;;;7.73;7.00;;;;;;;26.67;64.08;98541.94;6998685;28;20253;-83
2023/08/15 02:40:09;;;;;;;8.10;6.97;;;;;;;26.43;64.25;98535.06;7003433;28;20666;-83
2023/08/15 02:43:31;;;;;;;10.20;7.97;;;;;;;26.44;64.57;98556.91;7003424;28;20222;-82
2023/08/15 02:46:52;;;;;;;11.17;7.67;;;;;;;26.35;65.22;98556.00;7002458;28;20233;-82
2023/08/15 02:50:17;;;;;;;8.77;7.87;;;;;;;26.44;65.28;98556.91;6996615;28;20229;-84
2023/08/15 02:53:39;;;;;;;8.43;7.73;;;;;;;26.34;64.74;98512.06;7003007;28;20780;-82
2023/08/15 02:57:00;;;;;;;8.77;7.23;;;;;;;26.72;63.90;98547.34;7003394;28;20339;-83
2023/08/15 03:00:22;;;;;;;8.37;7.53;;;;;;;26.29;64.96;98550.88;7004933;28;20302;-82
2023/08/15 03:03:43;;;;;;;8.17;7.40;;;;;;;26.05;66.27;98542.88;7004285;28;20231;-82
2023/08/15 03:07:06;;;;;;;9.30;7.63;;;;;;;26.24;65.87;98543.53;7007470;28;20261;-84
2023/08/15 03:10:28;;;;;;;9.90;7.70;;;;;;;26.27;65.00;98550.38;7013718;28;20569;-83
2023/08/15 03:13:49;;;;;;;12.10;7.83;;;;;;;25.75;65.85;98495.75;7006559;28;20306;-83
2023/08/15 03:17:11;;;;;;;8.70;7.77;;;;;;;26.23;65.29;98543.84;7002462;28;20201;-83
2023/08/15 03:20:33;;;;;;;8.10;7.40;;;;;;;25.47;65.75;98455.50;7002239;28;20271;-84
2023/08/15 03:24:00;;;;;;;8.93;8.03;;;;;;;25.10;66.96;98404.13;7001725;28;20263;-82
2023/08/15 03:27:21;;;;;;;8.00;6.83;;;;;;;26.44;64.75;98525.66;7001523;28;20254;-83
2023/08/15 03:30:43;;;;;;;7.53;6.77;;;;;;;26.46;64.39;98549.09;7002295;28;20249;-83
2023/08/15 03:34:04;;;;;;;8.73;6.40;;;;;;;26.66;63.62;98536.75;7001814;28;20270;-82
2023/08/15 03:37:26;;;;;;;7.90;7.10;;;;;;;26.57;63.59;98558.81;7001661;28;20204;-83
2023/08/15 03:40:50;;;;;;;7.63;6.87;;;;;;;26.69;62.79;98536.94;7002191;28;20202;-83
2023/08/15 03:44:12;;;;;;;7.33;6.57;;;;;;;26.66;63.18;98556.91;7001453;28;20300;-82
2023/08/15 03:47:33;;;;;;;10.20;6.77;;;;;;;26.20;63.16;98490.00;7001610;28;20245;-85
2023/08/15 03:50:55;;;;;;;8.83;6.80;;;;;;;26.68;63.33;98582.31;7013052;28;20239;-84
2023/08/15 03:54:16;;;;;;;7.40;6.70;;;;;;;26.76;62.92;98566.88;7010818;28;20249;-82
2023/08/15 03:57:39;;;;;;;8.20;6.97;;;;;;;26.77;62.94;98590.69;7002901;28;20695;-83
2023/08/15 04:01:02;;;;;;;6.57;5.90;;;;;;;26.83;62.52;98581.91;7000171;28;20236;-83
2023/08/15 04:04:23;;;;;;;8.33;7.00;;;;;;;26.72;62.65;98575.00;6976699;28;20199;-82
2023/08/15 04:07:45;;;;;;;7.53;6.83;;;;;;;26.37;63.68;98573.06;6974164;28;20726;-83
2023/08/15 04:11:06;;;;;;;8.87;7.97;;;;;;;25.51;66.79;98561.44;6974669;28;20816;-83
2023/08/15 04:14:29;;;;;;;7.33;6.63;;;;;;;26.37;64.00;98586.91;6974794;28;20265;-83
2023/08/15 04:17:51;;;;;;;6.57;5.97;;;;;;;26.33;63.96;98596.13;6974164;28;20289;-84
2023/08/15 04:21:12;;;;;;;10.83;7.80;;;;;;;25.88;65.30;98600.69;6974341;28;20292;-82
2023/08/15 04:24:34;;;;;;;9.23;7.80;;;;;;;25.90;65.30;98601.22;6974274;28;20363;-85
2023/08/15 04:27:55;;;;;;;8.30;7.43;;;;;;;25.39;65.80;98512.28;6975348;28;20255;-83
2023/08/15 04:31:18;;;;;;;10.43;7.50;;;;;;;26.48;64.24;98601.31;6972976;28;20203;-84
2023/08/15 04:34:40;;;;;;;8.23;7.20;;;;;;;26.56;63.95;98598.66;6981041;28;20256;-83
2023/08/15 04:38:01;;;;;;;9.23;8.10;;;;;;;26.27;65.05;98598.22;6995391;28;20716;-83
2023/08/15 04:41:23;;;;;;;7.53;6.83;;;;;;;26.37;64.25;98609.00;7001441;28;20228;-83
2023/08/15 04:44:44;;;;;;;8.60;6.87;;;;;;;26.16;64.51;98587.69;7000742;28;20346;-83
2023/08/15 04:48:07;;;;;;;9.83;7.27;;;;;;;26.23;63.65;98577.84;7000605;28;20248;-83
2023/08/15 04:51:31;;;;;;;8.60;7.07;;;;;;;26.50;63.90;98621.19;6988293;28;20305;-82
2023/08/15 04:54:53;;;;;;;8.33;7.53;;;;;;;26.47;63.85;98649.44;6975948;28;20231;-83
2023/08/15 04:58:14;;;;;;;8.03;7.30;;;;;;;26.11;64.75;98641.13;6989539;28;20241;-86
2023/08/15 05:01:36;;;;;;;8.93;8.00;;;;;;;25.75;66.20;98639.38;6982322;28;20305;-82
2023/08/15 05:04:59;;;;;;;7.27;6.60;;;;;;;26.53;63.65;98646.25;6982897;28;20209;-85
2023/08/15 05:08:20;;;;;;;8.27;7.33;;;;;;;26.67;63.43;98643.47;6968841;28;20227;-84
2023/08/15 05:11:42;;;;;;;9.57;7.10;;;;;;;26.67;62.61;98646.25;6984737;28;20314;-84
2023/08/15 05:15:07;;;;;;;7.83;7.13;;;;;;;26.75;63.06;98660.16;6998045;28;20208;-83
2023/08/15 05:18:29;;;;;;;8.37;7.17;;;;;;;26.60;63.12;98635.59;6996837;28;20200;-83
2023/08/15 05:21:52;;;;;;;7.77;6.87;;;;;;;26.93;62.33;98664.69;6997989;28;20307;-82
2023/08/15 05:25:13;;;;;;;8.67;6.50;;;;;;;27.08;61.70;98653.22;7004938;28;20346;-84
2023/08/15 05:28:35;;;;;;;7.73;6.17;;;;;;;27.02;61.44;98639.84;7002520;28;20241;-82
2023/08/15 05:31:56;;;;;;;6.73;6.13;;;;;;;26.89;60.79;98580.66;7000068;28;20322;-84
2023/08/15 05:35:18;;;;;;;6.80;5.80;;;;;;;27.32;59.51;98583.72;6995647;28;20221;-86
2023/08/15 05:38:41;;;;;;;8.53;5.67;;;;;;;27.67;60.13;98658.31;6986165;28;20233;-83
2023/08/15 05:42:02;;;;;;;7.07;6.37;;;;;;;27.56;60.27;98647.84;6995915;28;20244;-84
2023/08/15 05:45:24;;;;;;;6.70;5.50;;;;;;;27.98;60.53;98648.06;6980616;28;20937;-84
2023/08/15 05:48:45;;;;;;;9.60;6.17;;;;;;;27.85;60.27;98643.41;6984715;28;20553;-85
2023/08/15 05:52:07;;;;;;;5.90;5.40;;;;;;;28.70;57.51;98657.50;6984074;28;20276;-84
2023/08/15 05:55:30;;;;;;;5.80;5.33;;;;;;;28.37;56.99;98573.09;6991679;28;20652;-81
2023/08/15 05:58:51;;;;;;;6.33;5.73;;;;;;;28.49;58.66;98675.91;6993819;28;20246;-84
2023/08/15 06:02:14;;;;;;;8.03;6.03;;;;;;;28.34;59.77;98673.59;6997806;28;20317;-85
2023/08/15 06:05:35;;;;;;;8.33;6.07;;;;;;;29.28;56.94;98685.59;6989449;28;20263;-85
2023/08/15 06:08:57;;;;;;;6.07;5.47;;;;;;;29.30;56.11;98685.25;6985398;28;20424;-84
2023/08/15 06:12:20;;;;;;;6.20;5.60;;;;;;;29.30;55.86;98686.06;6972876;28;20599;-84
2023/08/15 06:15:42;;;;;;;6.93;5.90;;;;;;;29.10;57.39;98695.09;6976779;28;20408;-84
2023/08/15 06:19:03;;;;;;;6.27;5.77;;;;;;;29.04;56.93;98682.50;6980091;28;20944;-84
2023/08/15 06:22:25;;;;;;;7.63;6.00;;;;;;;29.12;56.50;98676.13;6975610;28;20229;-84
2023/08/15 06:25:47;;;;;;;7.00;5.83;;;;;;;29.07;55.56;98692.16;6975309;28;20259;-83
2023/08/15 06:29:10;;;;;;;6.17;5.60;;;;;;;28.46;57.34;98636.91;7005045;28;20378;-82
2023/08/15 06:32:33;;;;;;;6.43;5.93;;;;;;;28.27;58.16;98650.22;7002079;28;20234;-82
2023/08/15 06:35:54;;;;;;;7.83;5.70;;;;;;;28.73;58.44;98717.88;6992722;28;20244;-82
2023/08/15 06:40:05;;;;;;;8.50;6.07;;;;;;;29.03;58.07;98724.47;6998834;28;20218;-82
2023/08/15 06:43:26;;;;;;;6.33;5.73;;;;;;;29.19;57.74;98729.19;6979232;28;20589;-81
2023/08/15 06:46:50;;;;;;;7.10;6.00;;;;;;;29.07;57.28;98722.69;7001435;28;20230;-82
2023/08/15 06:50:11;;;;;;;7.87;6.80;;;;;;;29.12;57.49;98720.56;7001848;28;20209;-84
2023/08/15 06:53:33;;;;;;;6.80;6.10;;;;;;;29.25;56.97;98697.34;7001895;28;20226;-81
2023/08/15 06:56:54;;;;;;;5.70;5.20;;;;;;;29.78;56.65;98719.19;7001510;28;20294;-82
2023/08/15 07:00:17;;;;;;;6.27;5.30;;;;;;;30.12;54.00;98700.41;7006053;28;20620;-83
2023/08/15 07:03:40;;;;;;;5.73;5.13;;;;;;;30.91;52.09;98715.16;7000893;28;20274;-84
2023/08/15 07:07:02;;;;;;;7.63;5.23;;;;;;;30.70;51.57;98714.34;7001421;28;20371;-83
2023/08/15 07:10:26;;;;;;;6.27;5.67;;;;;;;30.59;51.96;98734.50;7002107;28;20204;-86
2023/08/15 07:13:48;;;;;;;8.43;6.30;;;;;;;30.78;52.13;98705.09;6989697;28;20857;-82
2023/08/15 07:17:09;;;;;;;5.97;5.37;;;;;;;31.06;50.69;98725.69;6990969;28;20300;-83
2023/08/15 07:20:36;;;;;;;5.97;5.33;;;;;;;30.43;52.57;98725.94;7001403;28;20325;-82
2023/08/15 07:23:58;;;;;;;5.77;5.20;;;;;;;30.40;52.05;98648.72;7000789;28;20231;-83
2023/08/15 07:27:20;;;;;;;7.70;5.30;;;;;;;31.28;50.60;98714.22;7000150;28;20271;-83
2023/08/15 07:30:45;;;;;;;9.40;5.90;;;;;;;31.48;49.58;98730.09;6985561;28;20219;-84
2023/08/15 07:34:06;;;;;;;8.53;5.53;;;;;;;31.55;49.16;98701.66;6995853;28;20403;-84
2023/08/15 07:37:29;;;;;;;6.20;5.03;;;;;;;31.96;48.31;98732.25;6999709;28;20293;-83
2023/08/15 07:40:51;;;;;;;6.47;5.03;;;;;;;31.55;49.22;98724.78;7000701;28;20314;-86
2023/08/15 07:44:13;;;;;;;7.57;5.70;;;;;;;31.28;49.49;98736.53;7003186;28;20240;-84
2023/08/15 07:47:36;;;;;;;8.43;6.00;;;;;;;30.68;50.81;98729.75;7001165;28;20306;-85
2023/08/15 07:50:58;;;;;;;8.33;5.67;;;;;;;30.99;51.35;98738.53;6974340;28;20205;-84
2023/08/15 07:54:21;;;;;;;7.20;6.20;;;;;;;31.04;50.71;98746.69;6997240;28;20239;-83
2023/08/15 07:57:44;;;;;;;6.73;6.00;;;;;;;30.57;51.50;98717.34;6982786;28;20213;-83
2023/08/15 08:01:05;;;;;;;8.23;6.20;;;;;;;30.65;51.96;98747.94;6989703;28;20204;-83
2023/08/15 08:04:27;;;;;;;8.20;6.70;;;;;;;30.81;50.73;98749.00;6999283;28;20224;-84
2023/08/15 08:07:49;;;;;;;8.03;6.60;;;;;;;30.01;51.93;98674.09;6996325;28;20226;-84
2023/08/15 08:11:12;;;;;;;9.77;5.80;;;;;;;30.34;51.42;98627.81;6991850;28;20227;-84
2023/08/15 08:14:33;;;;;;;7.57;6.43;;;;;;;30.99;51.02;98721.81;6972920;28;20212;-83
2023/08/15 08:17:55;;;;;;;6.60;6.00;;;;;;;31.33;50.81;98743.84;6971207;28;20694;-84
2023/08/15 08:21:19;;;;;;;7.10;6.20;;;;;;;31.36;50.16;98741.19;6971384;28;20228;-85
2023/08/15 08:24:40;;;;;;;8.80;6.63;;;;;;;31.21;49.40;98702.84;6984258;28;20221;-83
2023/08/15 08:28:04;;;;;;;9.37;6.60;;;;;;;31.09;51.28;98738.13;6997899;28;20323;-82
2023/08/15 08:31:26;;;;;;;7.23;6.53;;;;;;;31.43;49.38;98751.81;6999030;28;20570;-85
2023/08/15 08:34:47;;;;;;;8.07;7.10;;;;;;;30.38;50.71;98678.81;6999544;28;20571;-85
2023/08/15 08:38:09;;;;;;;8.27;6.87;;;;;;;30.90;50.77;98751.72;6999398;28;20255;-85
2023/08/15 08:41:38;;;;;;;7.97;6.97;;;;;;;31.03;50.23;98658.72;6991899;28;20254;-82
2023/08/15 08:45:02;;;;;;;8.20;6.17;;;;;;;32.16;48.39;98742.50;6997317;28;20235;-83
2023/08/15 08:48:25;;;;;;;8.90;6.47;;;;;;;32.25;47.83;98732.88;6997916;28;20228;-84
2023/08/15 08:51:47;;;;;;;8.17;7.33;;;;;;;31.65;49.17;98746.66;6988833;28;20237;-84
2023/08/15 08:55:10;;;;;;;10.20;6.23;;;;;;;32.15;48.90;98747.28;6998368;28;20214;-84
2023/08/15 08:58:33;;;;;;;8.07;6.73;;;;;;;31.78;48.15;98741.97;6998094;28;20670;-85
2023/08/15 09:01:56;;;;;;;8.20;6.23;;;;;;;33.04;46.28;98749.84;6984011;28;20229;-82
2023/08/15 09:05:18;;;;;;;8.93;6.90;;;;;;;32.53;47.17;98753.34;6971449;28;20219;-82
2023/08/15 09:08:39;;;;;;;6.40;5.50;;;;;;;32.18;47.58;98690.75;6970642;28;20226;-83
2023/08/15 09:12:01;;;;;;;6.93;5.77;;;;;;;33.52;45.63;98723.69;6971743;28;20308;-83
2023/08/15 09:15:23;;;;;;;7.97;5.83;;;;;;;33.54;45.01;98754.94;6970979;28;20239;-84
2023/08/15 09:18:47;;;;;;;6.40;5.50;;;;;;;33.63;45.21;98750.81;6992409;28;20214;-84
2023/08/15 09:22:21;;;;;;;5.90;5.33;;;;;;;34.09;43.78;98693.31;6996898;28;20592;-84
2023/08/15 09:25:43;;;;;;;7.03;5.27;;;;;;;33.81;44.51;98693.41;6998021;28;20318;-81
2023/08/15 09:29:05;;;;;;;6.63;5.40;;;;;;;33.48;45.66;98728.41;6998406;28;20236;-84
2023/08/15 09:32:27;;;;;;;6.23;5.60;;;;;;;33.53;45.80;98748.53;6997596;28;20233;-83
2023/08/15 09:35:50;;;;;;;6.07;4.83;;;;;;;34.27;43.78;98729.03;6995903;28;20216;-82
2023/08/15 09:39:11;;;;;;;7.67;4.93;;;;;;;34.41;43.11;98726.56;6997528;28;20716;-83
2023/08/15 09:42:33;;;;;;;6.40;5.27;;;;;;;34.58;42.23;98748.59;6998434;28;20290;-82
2023/08/15 09:45:56;;;;;;;6.00;5.20;;;;;;;34.15;43.38;98737.47;6997056;28;20225;-84
2023/08/15 09:49:26;;;;;;;6.30;5.70;;;;;;;33.82;43.00;98759.38;6987553;28;20241;-85
2023/08/15 09:52:49;;;;;;;5.17;4.63;;;;;;;33.41;42.30;98747.75;6994340;28;20727;-86
2023/08/15 09:56:11;;;;;;;6.07;5.00;;;;;;;33.68;42.73;98724.56;6997519;28;20231;-86
2023/08/15 09:59:32;;;;;;;5.43;4.83;;;;;;;33.28;43.96;98707.03;6997922;28;20197;-82
2023/08/15 10:02:58;;;;;;;9.87;6.70;;;;;;;33.74;42.11;98737.13;6997427;28;20267;-84
2023/08/15 10:06:21;;;;;;;7.47;4.83;;;;;;;33.80;42.76;98739.34;6996327;28;20655;-84
2023/08/15 10:09:44;;;;;;;7.53;4.70;;;;;;;32.77;42.14;98745.00;6995962;28;20327;-86
2023/08/15 10:13:06;;;;;;;5.10;4.60;;;;;;;33.24;43.47;98736.81;6999104;28;20639;-83
2023/08/15 10:16:27;;;;;;;6.03;4.50;;;;;;;34.30;41.46;98741.50;6998482;28;20666;-83
2023/08/15 10:19:49;;;;;;;5.37;4.40;;;;;;;34.37;39.36;98750.84;6998694;28;20700;-84
2023/08/15 10:23:11;;;;;;;5.30;3.67;;;;;;;34.67;35.76;98743.59;6997522;28;20719;-83
2023/08/15 10:26:41;;;;;;;5.33;3.50;;;;;;;33.88;34.54;98667.56;6998411;28;20296;-83
2023/08/15 10:30:04;;;;;;;6.70;3.00;;;;;;;33.73;31.83;98618.81;6998781;28;20212;-83
2023/08/15 10:33:31;;;;;;;4.20;2.70;;;;;;;33.60;31.87;98638.84;6998211;28;20236;-83
2023/08/15 10:37:26;;;;;;;7.20;3.20;;;;;;;34.38;31.09;98765.69;6997709;28;20287;-84
2023/08/15 10:40:48;;;;;;;3.60;2.63;;;;;;;33.94;31.29;98731.31;6998632;28;20702;-84
2023/08/15 10:44:11;;;;;;;6.47;2.57;;;;;;;32.71;31.05;98631.03;6997405;28;20233;-84
2023/08/15 10:47:42;;;;;;;4.30;2.50;;;;;;;33.86;31.53;98785.47;6995713;28;20342;-83
2023/08/15 10:51:04;;;;;;;5.67;3.17;;;;;;;33.47;31.91;98713.59;7009540;28;20701;-83
2023/08/15 10:54:29;;;;;;;4.53;2.93;;;;;;;33.56;31.02;98711.47;7011037;28;20267;-85
2023/08/15 10:57:51;;;;;;;5.17;2.70;;;;;;;34.00;31.67;98777.44;6994860;28;20201;-85
2023/08/15 11:01:16;;;;;;;4.53;3.03;;;;;;;34.16;31.39;98771.88;7001365;28;20241;-84
2023/08/15 11:04:39;;;;;;;3.90;3.07;;;;;;;34.55;31.42;98776.53;7000721;28;20577;-84
2023/08/15 11:08:15;;;;;;;4.00;2.47;;;;;;;34.68;30.92;98752.81;7000434;28;20298;-83
2023/08/15 11:11:36;;;;;;;3.67;3.10;;;;;;;34.52;31.61;98730.44;7001361;28;20587;-84
2023/08/15 11:14:58;;;;;;;5.03;2.77;;;;;;;34.62;32.55;98766.31;7000340;28;20711;-83
2023/08/15 11:18:22;;;;;;;5.03;3.13;;;;;;;35.20;31.82;98761.66;6999693;28;20304;-85
2023/08/15 11:21:43;;;;;;;6.33;2.80;;;;;;;35.18;32.40;98761.22;6999459;28;20705;-84
2023/08/15 11:25:08;;;;;;;5.43;2.90;;;;;;;34.81;31.45;98765.56;6977850;28;20283;-84
2023/08/15 11:28:30;;;;;;;5.13;2.70;;;;;;;35.67;30.31;98757.47;6974551;28;20218;-84
2023/08/15 11:31:54;;;;;;;4.17;2.53;;;;;;;35.92;29.85;98742.00;6999274;28;20216;-83
2023/08/15 11:35:18;;;;;;;2.90;2.70;;;;;;;35.34;28.90;98610.56;7001364;28;20241;-84
2023/08/15 11:38:40;;;;;;;4.77;2.83;;;;;;;36.76;28.50;98749.09;7000478;28;20344;-83
2023/08/15 11:42:01;;;;;;;3.00;2.77;;;;;;;36.91;28.43;98734.06;7000102;28;20712;-83
2023/08/15 11:45:24;;;;;;;3.87;2.83;;;;;;;36.97;25.02;98752.22;7000282;28;20232;-84
2023/08/15 11:48:54;;;;;;;4.30;2.50;;;;;;;36.80;25.75;98766.84;6993722;28;20705;-84
2023/08/15 11:52:18;;;;;;;4.13;2.30;;;;;;;36.28;26.38;98766.75;6990865;28;20245;-84
2023/08/15 11:55:41;;;;;;;3.73;2.63;;;;;;;36.28;27.05;98757.50;6974515;28;20232;-84
2023/08/15 11:59:05;;;;;;;2.40;2.20;;;;;;;36.38;27.04;98765.31;6972754;28;20236;-84
2023/08/15 12:02:26;;;;;;;3.63;2.47;;;;;;;36.60;26.52;98770.09;6972912;28;20219;-84
2023/08/15 12:06:12;;;;;;;2.57;2.20;;;;;;;36.53;26.60;98761.53;6974341;28;20202;-83
2023/08/15 12:09:35;;;;;;;3.53;2.60;;;;;;;36.23;26.74;98727.75;6972374;28;20228;-83
2023/08/15 12:12:57;;;;;;;5.83;2.73;;;;;;;36.62;25.86;98672.19;6997458;28;20316;-84
2023/08/15 12:16:19;;;;;;;4.30;2.70;;;;;;;36.94;26.95;98710.81;6991079;28;20201;-84
2023/08/15 12:19:41;;;;;;;5.77;3.10;;;;;;;37.31;26.35;98714.56;6971997;28;20562;-84
2023/08/15 12:23:20;;;;;;;6.60;3.23;;;;;;;36.89;27.90;98746.91;6983777;28;20227;-83
2023/08/15 12:26:42;;;;;;;6.57;3.20;;;;;;;37.29;28.04;98756.34;6997760;28;20256;-85
2023/08/15 12:30:26;;;;;;;4.87;2.80;;;;;;;37.06;27.21;98751.94;6985978;28;20273;-84
2023/08/15 12:33:47;;;;;;;5.47;3.10;;;;;;;34.84;30.92;98759.25;6972761;28;20776;-85
2023/08/15 12:37:09;;;;;;;5.13;3.63;;;;;;;36.49;29.12;98752.25;6982142;28;20355;-84
2023/08/15 12:40:31;;;;;;;4.70;3.37;;;;;;;36.44;29.40;98756.16;6998813;28;20214;-83
2023/08/15 12:43:54;;;;;;;4.13;3.40;;;;;;;35.49;30.44;98761.91;6994915;28;20305;-85
2023/08/15 12:47:16;;;;;;;6.00;3.83;;;;;;;35.51;31.43;98753.97;6995061;28;20209;-83
2023/08/15 12:50:38;;;;;;;6.13;3.53;;;;;;;36.08;31.62;98753.91;7000878;28;20375;-84
2023/08/15 12:54:00;;;;;;;5.30;3.80;;;;;;;35.92;31.89;98756.03;6989297;28;20234;-83
2023/08/15 12:57:21;;;;;;;5.53;3.47;;;;;;;36.07;30.93;98755.09;6977265;28;20355;-84
2023/08/15 13:00:46;;;;;;;5.77;3.40;;;;;;;36.00;31.95;98749.34;6994099;28;20205;-82
2023/08/15 13:04:11;;;;;;;7.43;3.80;;;;;;;35.21;33.33;98747.28;6985974;28;20226;-83
2023/08/15 13:07:34;;;;;;;7.37;4.10;;;;;;;36.32;32.35;98741.53;7001199;28;20198;-82
2023/08/15 13:10:56;;;;;;;5.93;3.83;;;;;;;35.75;31.82;98748.06;6998316;28;20320;-82
2023/08/15 13:14:17;;;;;;;5.70;3.80;;;;;;;36.10;32.03;98742.28;6997770;28;20701;-83
2023/08/15 13:17:40;;;;;;;7.40;4.33;;;;;;;36.25;31.41;98732.97;6996661;28;20287;-84
2023/08/15 13:21:02;;;;;;;5.93;3.90;;;;;;;35.99;32.44;98733.69;6989597;28;20228;-84
2023/08/15 13:24:24;;;;;;;5.93;3.83;;;;;;;35.78;32.87;98736.09;6998984;28;20269;-83
2023/08/15 13:27:46;;;;;;;5.47;3.40;;;;;;;35.97;32.63;98721.22;7000206;28;20591;-84
2023/08/15 13:31:18;;;;;;;6.53;3.70;;;;;;;35.33;32.69;98738.78;6979966;28;20320;-85
2023/08/15 13:34:41;;;;;;;8.63;4.00;;;;;;;34.40;34.83;98716.53;6995759;28;20685;-84
2023/08/15 13:38:02;;;;;;;5.00;3.67;;;;;;;35.33;33.49;98735.97;6968275;28;20259;-85
2023/08/15 13:41:24;;;;;;;5.83;3.77;;;;;;;35.76;33.77;98730.03;6969898;28;20234;-84
2023/08/15 13:44:45;;;;;;;8.87;4.00;;;;;;;35.50;33.36;98727.06;6972514;28;20253;-84
2023/08/15 13:48:07;;;;;;;5.13;3.90;;;;;;;36.06;32.13;98708.53;6997882;28;20670;-86
2023/08/15 13:51:30;;;;;;;11.23;3.80;;;;;;;35.64;32.48;98687.28;6988777;28;20254;-86
2023/08/15 13:54:53;;;;;;;4.90;3.50;;;;;;;35.14;32.59;98576.09;6984920;28;20675;-83
2023/08/15 13:58:14;;;;;;;5.63;3.70;;;;;;;36.24;31.53;98711.69;6990990;28;20198;-82
2023/08/15 14:01:36;;;;;;;4.73;3.33;;;;;;;35.51;31.88;98669.00;6969857;28;20218;-85
2023/08/15 14:04:57;;;;;;;7.13;4.23;;;;;;;34.15;33.93;98647.09;6971011;28;20203;-85
2023/08/15 14:08:23;;;;;;;8.07;4.00;;;;;;;34.37;33.63;98588.44;6970551;28;20646;-84
2023/08/15 14:16:21;;;;;;;5.70;3.60;;;;;;;34.29;35.11;98714.63;6996287;28;20186;-85
2023/08/15 14:19:43;;;;;;;7.17;3.90;;;;;;;34.75;34.36;98709.00;6990527;28;20308;-85
2023/08/15 14:23:05;;;;;;;8.57;4.13;;;;;;;35.47;33.50;98708.19;6995253;28;20356;-84
2023/08/15 14:26:28;;;;;;;5.83;3.70;;;;;;;34.97;33.92;98711.09;6996509;28;20621;-83
2023/08/15 14:29:52;;;;;;;8.00;4.00;;;;;;;34.69;34.23;98622.78;6983661;28;20230;-86
2023/08/15 14:33:15;;;;;;;3.97;3.67;;;;;;;34.96;34.22;98711.47;6986116;28;20314;-86
2023/08/15 14:36:37;;;;;;;7.63;4.17;;;;;;;34.81;35.15;98684.31;6973887;28;20280;-85
2023/08/15 14:39:58;;;;;;;4.63;3.50;;;;;;;34.33;36.48;98707.97;6977328;28;20246;-84
2023/08/15 14:43:21;;;;;;;6.03;3.63;;;;;;;35.17;35.45;98709.13;6994269;28;20272;-84
2023/08/15 14:46:43;;;;;;;4.73;3.80;;;;;;;35.28;33.77;98711.03;7001573;28;20202;-84
2023/08/15 14:50:05;;;;;;;5.17;4.10;;;;;;;34.96;34.22;98692.66;6989788;28;20313;-85
2023/08/15 14:53:27;;;;;;;7.07;3.53;;;;;;;34.78;34.07;98693.47;6993119;28;20234;-86
2023/08/15 14:56:49;;;;;;;5.50;3.57;;;;;;;34.23;35.21;98708.47;6980909;28;20203;-86
2023/08/15 15:00:14;;;;;;;6.00;3.83;;;;;;;34.28;34.86;98657.84;6972765;28;20297;-86
2023/08/15 15:03:35;;;;;;;6.27;3.77;;;;;;;34.42;34.11;98699.38;6999502;28;20259;-83
2023/08/15 15:06:57;;;;;;;5.40;4.07;;;;;;;34.59;33.94;98676.56;7000524;28;20284;-84
2023/08/15 15:10:19;;;;;;;4.10;3.70;;;;;;;34.67;33.61;98697.97;6992353;28;20375;-83
2023/08/15 15:13:42;;;;;;;6.97;3.47;;;;;;;34.56;33.48;98696.91;7001237;28;20246;-84
2023/08/15 15:17:05;;;;;;;3.80;3.40;;;;;;;34.03;33.66;98619.19;6989311;28;20220;-85
2023/08/15 15:20:26;;;;;;;4.50;3.67;;;;;;;34.25;34.23;98700.53;6993389;28;20198;-83
2023/08/15 15:27:32;;;;;;;6.27;3.70;;;;;;;33.62;35.58;98698.03;6980097;28;20210;-85
2023/08/15 15:30:54;;;;;;;5.93;3.70;;;;;;;34.04;35.40;98715.97;6987892;28;20248;-82
2023/08/15 15:34:42;;;;;;;6.43;4.00;;;;;;;34.38;35.14;98721.66;6984323;28;20236;-83
2023/08/15 15:38:06;;;;;;;4.83;3.87;;;;;;;33.35;36.11;98705.28;6987478;28;20287;-84
2023/08/15 15:41:28;;;;;;;4.00;3.13;;;;;;;33.86;35.70;98698.72;6981754;28;20272;-84
2023/08/15 15:44:50;;;;;;;5.53;3.70;;;;;;;33.52;35.36;98665.81;7000105;28;20206;-84
2023/08/15 15:48:11;;;;;;;3.60;3.30;;;;;;;33.51;35.54;98658.59;6996503;28;20214;-84
2023/08/15 15:51:34;;;;;;;4.83;3.30;;;;;;;33.13;36.12;98688.22;6998706;28;20262;-85
2023/08/15 15:54:56;;;;;;;4.20;3.10;;;;;;;33.99;35.48;98705.88;6989875;28;20233;-84
2023/08/15 15:58:17;;;;;;;5.77;3.53;;;;;;;33.76;35.15;98676.84;6979504;28;20210;-84
2023/08/15 16:01:40;;;;;;;3.67;3.07;;;;;;;34.26;34.85;98718.19;6995449;28;20265;-85
2023/08/15 16:05:01;;;;;;;3.83;3.07;;;;;;;34.06;35.30;98725.63;7000168;28;20312;-84